KWYS/WYS METAR and TAF weather

Enter ICAO airport designator
Station Type Date Time Source
KWYS METAR 2020/08/10 19:15 UTC NOAA

KWYS 101915Z AUTO 23011KT 210V270 10SM CLR 24/04 A3019 RMK AO2


Station Type Date Time Source
KWYS Decoded METAR 2020/08/10 19:15 UTC NOAA

West Yellowstone, MT, United States (KWYS) 44-41N 111-07W
Aug 10, 2020 - 03:15 PM EDT / 2020.08.10 1915 UTC
Wind: from the SW (230 degrees) at 13 MPH (11 KT) (direction variable):0
Visibility: 10 mile(s):0
Sky conditions: clear
Temperature: 75 F (24 C)
Dew Point: 39 F (4 C)
Relative Humidity: 27%
Pressure (altimeter): 30.19 in. Hg (1022 hPa)
ob: KWYS 101915Z AUTO 23011KT 210V270 10SM CLR 24/04 A3019 RMK AO2
cycle: 19

Station Type Date Time Source
KWYS TAF 2020/08/10 18:20 UTC NOAA

TAF KWYS 101720Z 1018/1118 VRB06KT P6SM SKC
FM102300 23011G19KT P6SM SKC
FM110100 22009KT P6SM SKC

Example: see airport list